createdAt,value
2018-11-13T00:01:37.946Z,50.50
2018-11-13T00:04:29.588Z,50.50
2018-11-13T00:07:21.107Z,50.60
2018-11-13T00:10:29.280Z,50.50
2018-11-13T00:13:21.238Z,50.50
2018-11-13T00:16:12.938Z,50.50
2018-11-13T00:19:05.469Z,50.60
2018-11-13T00:21:57.953Z,50.50
2018-11-13T00:24:49.479Z,50.20
2018-11-13T00:27:41.568Z,50.40
2018-11-13T00:30:33.107Z,50.30
2018-11-13T00:33:24.703Z,50.40
2018-11-13T00:36:16.737Z,50.80
2018-11-13T00:39:11.402Z,50.60
2018-11-13T00:42:04.245Z,50.70
2018-11-13T00:44:55.695Z,50.70
2018-11-13T00:47:47.450Z,50.60
2018-11-13T00:50:41.600Z,50.50
2018-11-13T00:53:33.882Z,50.50
2018-11-13T00:56:26.508Z,50.50
2018-11-13T00:59:25.721Z,50.40
2018-11-13T01:02:17.317Z,50.80
2018-11-13T01:05:10.833Z,50.50
2018-11-13T01:08:03.237Z,50.10
2018-11-13T01:10:57.727Z,50.30
2018-11-13T01:13:46.266Z,50.00
2018-11-13T01:16:38.219Z,50.10
2018-11-13T01:19:29.817Z,50.10
2018-11-13T01:22:21.192Z,50.20
2018-11-13T01:25:13.877Z,50.40
2018-11-13T01:28:08.651Z,49.90
2018-11-13T01:30:57.753Z,46.40
2018-11-13T01:33:51.220Z,47.10
2018-11-13T01:36:43.662Z,47.50
2018-11-13T01:39:35.493Z,48.00
2018-11-13T01:42:49.640Z,48.30
2018-11-13T01:45:45.198Z,48.60
2018-11-13T01:48:40.977Z,48.90
2018-11-13T01:51:56.660Z,48.90
2018-11-13T01:54:48.679Z,49.30
2018-11-13T01:57:44.316Z,49.10
2018-11-13T02:00:42.082Z,49.30
2018-11-13T02:03:47.271Z,49.60
2018-11-13T02:06:42.087Z,49.70
2018-11-13T02:09:34.954Z,49.70
2018-11-13T02:12:34.267Z,49.90
2018-11-13T02:15:28.042Z,49.60
2018-11-13T02:18:23.283Z,49.60
2018-11-13T02:21:16.602Z,49.70
2018-11-13T02:24:14.590Z,49.70
2018-11-13T02:27:32.029Z,49.90
2018-11-13T02:30:34.393Z,50.00
2018-11-13T02:33:45.386Z,49.90
2018-11-13T02:36:44.968Z,50.20
2018-11-13T02:44:03.852Z,49.90
2018-11-13T02:54:31.528Z,47.60
2018-11-13T03:04:10.960Z,51.10
2018-11-13T03:07:05.254Z,49.90
2018-11-13T03:10:11.672Z,50.00
2018-11-13T03:17:20.742Z,49.90
2018-11-13T03:20:24.936Z,49.90
2018-11-13T03:34:04.103Z,49.70
2018-11-13T03:37:11.487Z,48.30
2018-11-13T03:40:07.291Z,46.20
2018-11-13T03:42:58.698Z,46.10
2018-11-13T03:45:50.141Z,47.30
2018-11-13T03:48:41.761Z,47.40
2018-11-13T03:51:33.214Z,47.70
2018-11-13T03:54:25.095Z,47.90
2018-11-13T03:57:16.816Z,48.20
2018-11-13T04:00:09.074Z,48.40
2018-11-13T04:03:00.478Z,48.50
2018-11-13T04:05:51.825Z,48.60
2018-11-13T04:08:43.520Z,48.80
2018-11-13T04:11:35.227Z,48.90
2018-11-13T04:14:27.179Z,49.00
2018-11-13T04:17:22.226Z,48.70
2018-11-13T04:20:11.360Z,48.60
2018-11-13T04:23:02.944Z,48.40
2018-11-13T04:25:54.375Z,48.50
2018-11-13T04:34:50.965Z,49.10
2018-11-13T04:41:14.464Z,49.30
2018-11-13T04:47:28.680Z,48.90
2018-11-13T05:01:31.480Z,48.40
2018-11-13T05:04:30.117Z,49.00
2018-11-13T05:07:35.528Z,49.00
2018-11-13T05:10:19.699Z,48.90
2018-11-13T05:13:18.985Z,49.10
2018-11-13T05:16:06.966Z,49.20
2018-11-13T05:18:58.581Z,48.80
2018-11-13T05:21:58.621Z,49.00
2018-11-13T05:24:56.017Z,49.30
2018-11-13T05:27:48.873Z,49.10
2018-11-13T05:30:51.461Z,49.40
2018-11-13T05:33:35.424Z,49.00
2018-11-13T05:36:29.960Z,48.80
2018-11-13T05:39:23.191Z,48.80
2018-11-13T05:42:17.649Z,49.00
2018-11-13T05:45:22.581Z,49.00
2018-11-13T05:48:17.589Z,49.00
2018-11-13T05:51:13.732Z,48.80
2018-11-13T05:54:05.472Z,48.80
2018-11-13T05:57:04.977Z,49.10
2018-11-13T05:59:56.408Z,48.90
2018-11-13T06:02:59.989Z,49.00
2018-11-13T06:05:55.302Z,49.00
2018-11-13T06:08:57.775Z,48.80
2018-11-13T06:11:56.204Z,49.00
2018-11-13T06:14:44.769Z,48.80
2018-11-13T06:17:45.359Z,48.90
2018-11-13T06:20:39.455Z,48.90
2018-11-13T06:23:27.942Z,48.90
2018-11-13T06:26:52.865Z,49.00
2018-11-13T06:29:33.555Z,48.90
2018-11-13T06:32:46.830Z,49.00
2018-11-13T06:35:36.600Z,49.00
2018-11-13T06:38:39.907Z,48.90
2018-11-13T06:41:26.353Z,48.70
2018-11-13T06:44:18.649Z,48.60
2018-11-13T06:47:11.402Z,48.40
2018-11-13T06:50:08.980Z,48.60
2018-11-13T06:53:07.644Z,48.40
2018-11-13T06:56:05.416Z,47.90
2018-11-13T06:59:04.725Z,48.00
2018-11-13T07:02:00.449Z,47.80
2018-11-13T07:08:51.066Z,47.40
2018-11-13T07:11:44.812Z,47.90
2018-11-13T07:14:37.110Z,47.30
2018-11-13T07:17:29.605Z,47.40
2018-11-13T07:20:31.431Z,47.40
2018-11-13T07:23:19.004Z,47.30
2018-11-13T07:26:32.480Z,47.50
2018-11-13T07:29:28.480Z,47.60
2018-11-13T07:32:21.250Z,47.70
2018-11-13T07:35:16.693Z,47.70
2018-11-13T07:38:14.034Z,47.60
2018-11-13T07:41:28.668Z,47.10
2018-11-13T07:44:25.636Z,47.10
2018-11-13T07:47:25.154Z,47.00
2018-11-13T07:50:17.740Z,46.80
2018-11-13T07:53:17.669Z,46.30
2018-11-13T07:56:54.808Z,45.90
2018-11-13T07:59:57.755Z,45.90
2018-11-13T08:02:57.198Z,45.70
2018-11-13T08:05:52.442Z,45.50
2018-11-13T08:08:41.319Z,45.20
2018-11-13T08:11:37.042Z,45.20
2018-11-13T08:14:35.509Z,45.20
2018-11-13T08:17:33.762Z,45.40
2018-11-13T08:20:32.387Z,45.40
2018-11-13T08:23:27.371Z,45.50
2018-11-13T08:26:20.194Z,45.90
2018-11-13T08:29:11.038Z,46.30
2018-11-13T08:31:59.729Z,46.20
2018-11-13T08:34:55.597Z,46.60
2018-11-13T08:37:47.340Z,46.50
2018-11-13T08:40:38.467Z,46.30
2018-11-13T08:43:34.320Z,46.10
2018-11-13T08:46:26.948Z,46.10
2018-11-13T08:49:19.562Z,45.90
2018-11-13T08:52:13.334Z,45.60
2018-11-13T08:55:33.495Z,45.50
2018-11-13T08:58:18.211Z,45.20
2018-11-13T09:01:10.385Z,45.00
2018-11-13T09:04:08.517Z,45.10
2018-11-13T09:07:05.569Z,44.80
2018-11-13T09:10:07.520Z,44.90
2018-11-13T09:12:59.543Z,44.80
2018-11-13T09:15:59.672Z,45.10
2018-11-13T09:18:56.498Z,45.20
2018-11-13T09:21:47.898Z,45.10
2018-11-13T09:25:10.526Z,45.00
2018-11-13T09:27:53.393Z,45.10
2018-11-13T09:30:50.687Z,45.10
2018-11-13T09:33:42.317Z,44.90
2018-11-13T09:36:34.221Z,44.90
2018-11-13T09:39:31.697Z,44.90
2018-11-13T09:42:37.422Z,44.80
2018-11-13T09:55:24.503Z,44.50
2018-11-13T09:58:41.232Z,44.50
2018-11-13T10:01:27.901Z,44.30
2018-11-13T10:04:42.761Z,44.50
2018-11-13T10:07:35.254Z,44.50
2018-11-13T10:10:28.909Z,44.50
2018-11-13T10:13:27.395Z,44.40
2018-11-13T10:16:32.213Z,44.40
2018-11-13T10:19:25.679Z,44.40
2018-11-13T10:22:25.035Z,44.40
2018-11-13T10:25:25.702Z,44.20
2018-11-13T10:28:23.450Z,44.20
2018-11-13T10:31:18.125Z,44.20
2018-11-13T10:34:22.934Z,44.10
2018-11-13T10:37:27.451Z,44.10
2018-11-13T10:40:26.791Z,44.10
2018-11-13T10:43:30.517Z,44.00
2018-11-13T10:46:35.925Z,43.90
2018-11-13T10:53:05.636Z,43.90
2018-11-13T10:56:09.806Z,43.90
2018-11-13T10:59:08.289Z,43.70
2018-11-13T11:02:34.208Z,43.70
2018-11-13T11:12:53.666Z,44.10
2018-11-13T11:33:39.902Z,44.60
2018-11-13T11:39:57.532Z,44.30
2018-11-13T11:46:04.289Z,44.30
2018-11-13T11:49:07.461Z,44.40
2018-11-13T11:52:14.479Z,44.30
2018-11-13T11:55:12.084Z,44.30
2018-11-13T11:58:10.879Z,44.50
2018-11-13T12:01:07.636Z,44.60
2018-11-13T12:04:14.413Z,44.80
2018-11-13T12:07:03.647Z,44.90
2018-11-13T12:09:55.331Z,45.00
2018-11-13T12:12:46.879Z,45.20
2018-11-13T12:15:42.068Z,45.30
2018-11-13T12:18:39.879Z,45.60
2018-11-13T12:21:33.376Z,45.70
2018-11-13T12:24:25.676Z,45.80
2018-11-13T12:27:17.965Z,46.00
2018-11-13T12:36:14.422Z,46.20
2018-11-13T12:39:10.004Z,46.20
2018-11-13T12:42:05.750Z,46.30
2018-11-13T12:45:01.006Z,46.40
2018-11-13T12:47:55.362Z,46.50
2018-11-13T12:51:08.258Z,46.60
2018-11-13T12:54:13.945Z,46.60
2018-11-13T12:57:07.765Z,46.60
2018-11-13T13:00:06.407Z,46.80
2018-11-13T13:02:59.922Z,46.80
2018-11-13T13:05:57.087Z,46.90
2018-11-13T13:08:50.495Z,46.90
2018-11-13T13:11:43.456Z,47.00
2018-11-13T13:14:36.840Z,47.00
2018-11-13T13:17:32.719Z,47.00
2018-11-13T13:20:26.499Z,47.10
2018-11-13T13:23:19.934Z,47.10
2018-11-13T13:30:30.084Z,47.20
2018-11-13T13:33:26.388Z,47.00
2018-11-13T13:36:18.256Z,47.00
2018-11-13T13:39:11.038Z,47.00
2018-11-13T13:42:02.169Z,47.30
2018-11-13T13:44:53.486Z,47.00
2018-11-13T13:47:44.715Z,47.40
2018-11-13T13:50:36.098Z,47.50
2018-11-13T13:53:28.538Z,47.50
2018-11-13T13:56:20.058Z,47.60
2018-11-13T13:59:15.183Z,47.60
2018-11-13T14:02:04.338Z,47.50
2018-11-13T14:04:59.052Z,47.50
2018-11-13T14:07:50.872Z,47.60
2018-11-13T14:10:45.766Z,47.70
2018-11-13T14:13:37.575Z,47.90
2018-11-13T14:16:29.662Z,48.00
2018-11-13T14:19:21.718Z,48.00
2018-11-13T14:22:13.795Z,48.00
2018-11-13T14:25:08.596Z,48.10
2018-11-13T14:28:00.536Z,48.10
2018-11-13T14:30:52.146Z,48.20
2018-11-13T14:33:43.561Z,48.10
2018-11-13T14:36:35.188Z,48.20
2018-11-13T14:39:26.843Z,48.20
2018-11-13T14:42:18.329Z,48.30
2018-11-13T14:45:10.670Z,48.30
2018-11-13T14:48:02.379Z,48.30
2018-11-13T14:50:54.515Z,48.40
2018-11-13T14:53:45.841Z,47.80
2018-11-13T14:56:38.365Z,48.20
2018-11-13T14:59:30.319Z,48.10
2018-11-13T15:02:21.535Z,47.90
2018-11-13T15:05:22.819Z,47.80
2018-11-13T15:08:15.026Z,48.20
2018-11-13T15:11:06.640Z,48.20
2018-11-13T15:13:57.952Z,48.20
2018-11-13T15:16:52.938Z,48.30
2018-11-13T15:19:41.085Z,48.00
2018-11-13T15:22:32.729Z,47.60
2018-11-13T15:25:25.150Z,48.10
2018-11-13T15:28:17.405Z,48.20
2018-11-13T15:31:09.561Z,48.30
2018-11-13T15:34:01.852Z,48.30
2018-11-13T15:36:53.736Z,48.10
2018-11-13T15:39:45.208Z,48.10
2018-11-13T15:42:38.566Z,48.30
2018-11-13T15:45:28.774Z,48.40
2018-11-13T15:48:21.242Z,48.30
2018-11-13T15:51:12.826Z,48.50
2018-11-13T15:54:05.597Z,48.40
2018-11-13T15:56:58.318Z,48.40
2018-11-13T15:59:50.249Z,48.20
2018-11-13T16:02:45.364Z,48.10
2018-11-13T16:05:47.988Z,48.00
2018-11-13T16:08:40.323Z,48.10
2018-11-13T16:11:32.115Z,48.20
2018-11-13T16:14:24.029Z,48.10
2018-11-13T16:17:16.193Z,48.30
2018-11-13T16:20:08.913Z,48.20
2018-11-13T16:23:00.772Z,48.40
2018-11-13T16:25:52.380Z,48.40
2018-11-13T16:28:44.425Z,48.50
2018-11-13T16:31:36.344Z,48.50
2018-11-13T16:34:28.317Z,48.50
2018-11-13T16:37:19.981Z,48.60
2018-11-13T16:40:12.981Z,48.70
2018-11-13T16:43:08.568Z,48.60
2018-11-13T16:46:00.501Z,48.80
2018-11-13T16:48:52.201Z,48.80
2018-11-13T16:51:44.284Z,48.90
2018-11-13T16:54:51.131Z,49.00
2018-11-13T16:57:43.858Z,49.00
2018-11-13T17:00:35.976Z,49.00
2018-11-13T17:03:27.715Z,49.10
2018-11-13T17:06:19.762Z,49.10
2018-11-13T17:09:13.640Z,49.30
2018-11-13T17:12:05.191Z,49.10
2018-11-13T17:14:56.609Z,49.00
2018-11-13T17:17:49.025Z,49.10
2018-11-13T17:20:41.185Z,49.00
2018-11-13T17:23:32.293Z,49.10
2018-11-13T17:26:24.491Z,49.00
2018-11-13T17:29:19.362Z,49.00
2018-11-13T17:32:10.958Z,49.30
2018-11-13T17:35:02.339Z,49.20
2018-11-13T17:37:57.250Z,49.20
2018-11-13T17:40:48.583Z,49.30
2018-11-13T17:43:39.937Z,49.40
2018-11-13T17:46:31.757Z,49.40
2018-11-13T17:49:23.111Z,49.50
2018-11-13T17:52:15.442Z,49.60
2018-11-13T17:55:07.016Z,49.60
2018-11-13T17:58:02.899Z,49.70
2018-11-13T18:00:54.015Z,49.70
2018-11-13T18:03:45.434Z,49.80
2018-11-13T18:06:36.942Z,50.00
2018-11-13T18:09:28.546Z,50.00
2018-11-13T18:12:20.004Z,50.10
2018-11-13T18:15:12.857Z,50.20
2018-11-13T18:18:04.455Z,50.20
2018-11-13T18:20:55.715Z,50.30
2018-11-13T18:23:47.289Z,50.40
2018-11-13T18:26:39.018Z,50.50
2018-11-13T18:29:33.089Z,50.50
2018-11-13T18:32:27.378Z,50.60
2018-11-13T18:35:29.272Z,50.70
2018-11-13T18:38:18.334Z,50.80
2018-11-13T18:41:09.746Z,50.80
2018-11-13T18:44:01.506Z,50.80
2018-11-13T18:46:53.220Z,50.90
2018-11-13T18:49:44.816Z,50.90
2018-11-13T18:52:37.162Z,50.90
2018-11-13T18:55:29.171Z,50.90
2018-11-13T18:58:21.651Z,50.90
2018-11-13T19:01:13.510Z,50.90
2018-11-13T19:04:05.160Z,50.80
2018-11-13T19:06:56.989Z,50.80
2018-11-13T19:09:49.303Z,50.80
2018-11-13T19:12:41.827Z,50.60
2018-11-13T19:15:34.205Z,50.80
2018-11-13T19:18:26.147Z,51.00
2018-11-13T19:21:18.080Z,50.90
2018-11-13T19:24:09.486Z,50.70
2018-11-13T19:27:01.371Z,50.90
2018-11-13T19:29:53.096Z,50.70
2018-11-13T19:32:45.070Z,50.70
2018-11-13T19:35:38.928Z,50.60
2018-11-13T19:38:31.044Z,50.80
2018-11-13T19:41:22.730Z,50.70
2018-11-13T19:44:14.463Z,50.60
2018-11-13T19:47:05.951Z,50.50
2018-11-13T19:49:57.388Z,50.60
2018-11-13T19:52:49.013Z,50.50
2018-11-13T19:55:40.787Z,50.70
2018-11-13T19:58:32.366Z,50.50
2018-11-13T20:01:24.644Z,50.60
2018-11-13T20:04:16.367Z,50.70
2018-11-13T20:07:08.035Z,50.60
2018-11-13T20:09:59.631Z,50.50
2018-11-13T20:12:52.714Z,50.60
2018-11-13T20:15:44.677Z,50.70
2018-11-13T20:18:36.175Z,50.50
2018-11-13T20:21:27.898Z,50.70
2018-11-13T20:24:19.408Z,50.60
2018-11-13T20:27:11.443Z,50.50
2018-11-13T20:30:02.867Z,50.60
2018-11-13T20:32:54.269Z,50.60
2018-11-13T20:35:46.011Z,50.50
2018-11-13T20:38:37.414Z,50.60
2018-11-13T20:41:28.757Z,50.40
2018-11-13T20:44:20.432Z,50.30
2018-11-13T20:47:11.557Z,50.50
2018-11-13T20:50:02.783Z,50.60
2018-11-13T20:52:55.237Z,50.50
2018-11-13T20:55:46.534Z,50.30
2018-11-13T20:58:38.182Z,50.20
2018-11-13T21:01:29.692Z,49.80
2018-11-13T21:04:21.226Z,50.50
2018-11-13T21:07:12.744Z,50.10
2018-11-13T21:10:04.164Z,50.30
2018-11-13T21:12:55.467Z,50.30
2018-11-13T21:15:47.078Z,50.30
2018-11-13T21:18:38.804Z,50.40
2018-11-13T21:21:30.743Z,50.20
2018-11-13T21:24:22.359Z,50.10
2018-11-13T21:27:16.782Z,50.20
2018-11-13T21:30:09.738Z,50.40
2018-11-13T21:33:01.210Z,50.20
2018-11-13T21:35:53.156Z,49.90
2018-11-13T21:38:44.656Z,50.80
2018-11-13T21:41:36.198Z,50.30
2018-11-13T21:44:27.390Z,50.40
2018-11-13T21:47:19.997Z,50.30
2018-11-13T21:50:12.284Z,50.40
2018-11-13T21:53:03.714Z,50.30
2018-11-13T21:55:55.549Z,50.70
2018-11-13T21:58:46.769Z,50.10
2018-11-13T22:01:39.271Z,50.20
2018-11-13T22:04:30.397Z,50.30
2018-11-13T22:07:24.832Z,50.10
2018-11-13T22:10:16.708Z,50.20
2018-11-13T22:13:08.121Z,50.20
2018-11-13T22:16:02.735Z,50.00
2018-11-13T22:18:51.520Z,50.10
2018-11-13T22:21:48.072Z,50.10
2018-11-13T22:24:35.361Z,50.30
2018-11-13T22:27:32.710Z,50.20
2018-11-13T22:30:33.878Z,50.40
2018-11-13T22:33:25.193Z,50.30
2018-11-13T22:36:16.663Z,50.40
2018-11-13T22:39:12.511Z,50.40
2018-11-13T22:42:10.302Z,50.40
2018-11-13T22:45:01.374Z,50.20
2018-11-13T22:48:02.331Z,50.30
2018-11-13T22:50:54.049Z,50.40
2018-11-13T22:53:45.469Z,50.50
2018-11-13T22:56:37.178Z,49.90
2018-11-13T22:59:28.807Z,50.40
2018-11-13T23:02:23.650Z,50.00
2018-11-13T23:05:15.430Z,50.10
2018-11-13T23:08:07.073Z,50.10
2018-11-13T23:10:59.186Z,50.00
2018-11-13T23:13:50.601Z,50.00
2018-11-13T23:16:42.632Z,50.10
2018-11-13T23:19:37.218Z,50.10
2018-11-13T23:22:29.294Z,50.10
2018-11-13T23:25:21.642Z,50.10
2018-11-13T23:28:13.270Z,49.90
2018-11-13T23:31:04.325Z,50.00
2018-11-13T23:33:55.640Z,50.00
2018-11-13T23:36:46.774Z,50.10
2018-11-13T23:39:38.473Z,50.10
2018-11-13T23:42:30.205Z,50.10
2018-11-13T23:45:26.186Z,50.10
2018-11-13T23:48:17.961Z,50.00
2018-11-13T23:51:09.497Z,50.00
2018-11-13T23:54:01.099Z,50.00
2018-11-13T23:56:52.634Z,50.10
2018-11-13T23:59:46.923Z,50.10
